Angler Guide Weather for Dease Lake -
Dease Lake, British Columbia Current Weather Conditions
Enter your "Place, State", US Zip Code or ICAO:  
Forecast Information Radar Information
Dease Lake, British Columbia, Canada  Lat: 58.40N, Lon: 130.00E
ICAO Used: UEEE
Current Conditions
Updated:
Sun & Moon Information:
Temp: N/A
Humidity: N/A
Wind Speed: N/A
Barometer: N/A
Dewpoint: N/A
Heat Index: N/A
Wind Chill: N/A
Civil Twilight: 2:33 PM PST
Moonrise: 7:04 PM PST Moon Phase:
Waxing Crescent Moon
Waxing Crescent Moon
Moonset: 1:44 AM PST
Sunrise: 3:21 PM PST
Sunset: 10:48 PM PST
Civil Twilight: 11:36 PM PST
Forecast for Dease Lake, BC:
(Forecast based on TAF for )
1210 PM PST MON NOV 06 2006
  
AFTERNOONEVENINGOVERNIGHT
HEAVY SNOWHEAVY SNOWHEAVY SNOW
Heavy
Snow
Heavy
Snow
Heavy
Snow
TAF based forecast:
Dated: 1210 PM PST MON NOV 06 2006
Afternoon...Overcast with light snow showers and heavy snow showers with winds from the east at 13 mph.
Evening...Overcast with light snow showers and heavy snow showers with winds from the east at 13 mph.
Overnight...Overcast with light snow showers and heavy snow showers with winds from the east at 13 mph.
Original Encoded TAF:
Dated: 1210 PM PST MON NOV 06 2006
2006/11/06 20:10
UEEE 062010Z 062207 10006MPS 3000 -SHSN BKN015CB OVC070
2204 0700 +SHSN VV002 BKN015CB OVC070=




Powered by Angler Guide.com
Copyright 2007, all rights reserved.